Time;durP1;ratioP1;P1;durP2;ratioP2;P2;SDS_P1;SDS_P2;PMS_P1;PMS_P2;Temp;Humidity;BMP_temperature;BMP_pressure;BME280_temperature;BME280_humidity;BME280_pressure;Samples;Min_cycle;Max_cycle;Signal;HPM_P1;HPM_P2
2021/12/21 00:00:57;;;;;;;6.45;3.40;;;21.40;69.40;;;;;;7838809;28;20182;-66
2021/12/21 00:04:42;;;;;;;7.15;3.05;;;21.30;69.30;;;;;;7839233;28;20218;-66
2021/12/21 00:08:28;;;;;;;8.57;3.15;;;21.20;69.20;;;;;;7838499;28;20189;-66
2021/12/21 00:12:17;;;;;;;11.82;3.13;;;21.20;69.10;;;;;;7839193;28;20694;-65
2021/12/21 00:24:18;;;;;;;7.13;3.20;;;21.20;68.90;;;;;;7838845;28;20193;-66
2021/12/21 00:28:04;;;;;;;8.55;3.25;;;21.10;68.80;;;;;;7838202;28;20677;-66
2021/12/21 00:31:49;;;;;;;6.07;3.28;;;21.10;68.80;;;;;;7838990;28;20541;-66
2021/12/21 00:35:35;;;;;;;6.47;2.83;;;21.00;68.70;;;;;;7838665;28;20191;-66
2021/12/21 00:39:20;;;;;;;5.38;3.25;;;21.00;68.80;;;;;;7837865;28;20189;-66
2021/12/21 00:43:05;;;;;;;7.03;3.15;;;20.90;68.60;;;;;;7838369;28;20240;-66
2021/12/21 00:46:51;;;;;;;5.53;2.95;;;20.90;68.60;;;;;;7838321;28;20714;-66
2021/12/21 00:50:36;;;;;;;3.50;2.42;;;20.90;68.70;;;;;;7837780;28;20568;-66
2021/12/21 00:54:22;;;;;;;3.63;1.98;;;20.80;68.70;;;;;;7838161;28;20263;-66
2021/12/21 00:58:08;;;;;;;3.22;2.20;;;20.90;68.90;;;;;;7837758;28;20177;-66
2021/12/21 01:01:53;;;;;;;5.82;2.55;;;20.80;68.80;;;;;;7838132;28;20536;-65
2021/12/21 01:05:52;;;;;;;4.35;2.35;;;20.80;68.90;;;;;;7838032;28;20367;-66
2021/12/21 01:17:47;;;;;;;3.00;1.95;;;20.70;68.80;;;;;;7837414;28;20186;-66
2021/12/21 01:21:40;;;;;;;4.78;2.08;;;20.70;68.80;;;;;;7837672;28;20181;-66
2021/12/21 01:25:52;;;;;;;3.00;1.77;;;20.60;68.80;;;;;;7837784;28;20193;-66
2021/12/21 01:29:45;;;;;;;4.22;1.83;;;20.60;68.70;;;;;;7836403;28;20308;-66
2021/12/21 01:33:54;;;;;;;3.72;1.88;;;20.60;69.10;;;;;;7837555;28;20280;-66
2021/12/21 01:38:00;;;;;;;3.38;1.88;;;20.60;68.80;;;;;;7837154;28;20697;-66
2021/12/21 01:42:17;;;;;;;4.20;2.45;;;20.50;68.80;;;;;;7837754;28;20206;-66
2021/12/21 01:50:07;;;;;;;4.60;1.95;;;20.50;68.70;;;;;;7837024;28;20735;-66
2021/12/21 01:53:53;;;;;;;2.47;1.88;;;20.50;68.80;;;;;;7837105;28;20316;-65
2021/12/21 01:57:38;;;;;;;3.20;1.85;;;20.50;68.80;;;;;;7836453;28;20597;-66
2021/12/21 02:01:26;;;;;;;5.00;2.10;;;20.50;68.80;;;;;;7837116;28;20190;-65
2021/12/21 02:05:12;;;;;;;3.10;2.30;;;20.40;68.70;;;;;;7837127;28;20243;-65
2021/12/21 02:08:57;;;;;;;2.90;1.98;;;20.40;68.70;;;;;;7836423;28;20174;-65
2021/12/21 02:12:43;;;;;;;4.50;2.25;;;20.40;68.70;;;;;;7837051;28;20201;-66
2021/12/21 02:16:41;;;;;;;4.15;2.20;;;20.40;68.70;;;;;;7837043;28;20186;-66
2021/12/21 02:24:21;;;;;;;4.40;2.38;;;20.40;68.70;;;;;;7842276;28;20202;-66
2021/12/21 02:32:02;;;;;;;4.60;2.53;;;20.30;68.70;;;;;;7842274;28;20834;-65
2021/12/21 02:35:48;;;;;;;5.93;2.95;;;20.30;69.50;;;;;;7842069;28;20261;-66
2021/12/21 02:39:33;;;;;;;6.78;3.28;;;20.30;68.70;;;;;;7841389;28;20185;-65
2021/12/21 02:43:19;;;;;;;4.68;2.75;;;20.30;68.70;;;;;;7841947;28;20209;-65
2021/12/21 02:47:05;;;;;;;5.13;2.78;;;20.30;68.70;;;;;;7841861;28;20568;-65
2021/12/21 02:50:50;;;;;;;3.35;2.50;;;20.30;68.70;;;;;;7841032;28;20170;-66
2021/12/21 02:54:36;;;;;;;5.78;3.08;;;20.30;68.70;;;;;;7841545;28;20210;-66
2021/12/21 02:58:21;;;;;;;7.15;3.38;;;20.20;68.70;;;;;;7840966;28;20181;-66
2021/12/21 03:02:07;;;;;;;5.00;2.85;;;20.30;68.70;;;;;;7841518;28;20243;-66
2021/12/21 03:05:56;;;;;;;4.20;2.75;;;20.20;68.70;;;;;;7841215;28;20209;-65
2021/12/21 03:09:54;;;;;;;4.57;2.70;;;20.20;68.70;;;;;;7840627;28;20181;-65
2021/12/21 03:13:54;;;;;;;5.38;3.15;;;20.20;68.80;;;;;;7841051;28;20200;-66
2021/12/21 03:17:39;;;;;;;4.63;2.80;;;20.20;68.70;;;;;;7840417;28;20269;-66
2021/12/21 03:21:26;;;;;;;6.68;3.10;;;20.20;68.80;;;;;;7840844;28;20204;-65
2021/12/21 03:25:12;;;;;;;5.28;2.88;;;20.20;68.80;;;;;;7840661;28;20201;-64
2021/12/21 03:28:58;;;;;;;6.43;2.95;;;20.10;68.70;;;;;;7839986;28;20178;-65
2021/12/21 03:32:43;;;;;;;4.40;2.85;;;20.10;68.60;;;;;;7839915;28;20209;-65
2021/12/21 03:36:29;;;;;;;4.50;2.70;;;20.10;68.60;;;;;;7840408;28;20186;-65
2021/12/21 03:40:15;;;;;;;4.22;2.95;;;20.10;68.60;;;;;;7839292;28;20178;-65
2021/12/21 03:44:02;;;;;;;6.55;3.20;;;20.10;69.50;;;;;;7839894;28;20209;-65
2021/12/21 03:47:47;;;;;;;4.38;2.85;;;20.10;68.60;;;;;;7839370;28;20184;-65
2021/12/21 03:51:33;;;;;;;8.50;3.15;;;20.10;68.70;;;;;;7839821;28;20174;-65
2021/12/21 03:55:18;;;;;;;5.88;2.90;;;20.10;68.70;;;;;;7840250;28;20194;-64
2021/12/21 03:59:04;;;;;;;4.45;2.78;;;20.10;68.60;;;;;;7838999;28;20189;-65
2021/12/21 04:02:50;;;;;;;6.82;3.00;;;20.00;68.50;;;;;;7839344;28;20202;-64
2021/12/21 04:06:36;;;;;;;6.47;3.00;;;20.00;68.50;;;;;;7839326;28;20238;-65
2021/12/21 04:10:22;;;;;;;6.05;3.08;;;20.00;68.50;;;;;;7838624;28;20170;-65
2021/12/21 04:14:09;;;;;;;6.63;3.33;;;20.00;68.50;;;;;;7839163;28;20251;-65
2021/12/21 04:17:55;;;;;;;5.15;3.00;;;20.00;68.50;;;;;;7838418;28;20181;-65
2021/12/21 04:21:41;;;;;;;7.05;3.53;;;20.00;68.70;;;;;;7839284;28;20525;-65
2021/12/21 04:25:27;;;;;;;4.03;3.13;;;20.00;68.60;;;;;;7838809;28;20557;-65
2021/12/21 04:29:12;;;;;;;6.07;3.10;;;20.00;68.60;;;;;;7837966;28;20213;-65
2021/12/21 04:32:58;;;;;;;6.53;3.05;;;20.00;68.60;;;;;;7838559;28;20671;-65
2021/12/21 04:36:45;;;;;;;5.70;2.88;;;20.00;68.60;;;;;;7838584;28;20193;-65
2021/12/21 04:40:44;;;;;;;7.25;3.50;;;20.00;68.60;;;;;;7837871;28;20181;-65
2021/12/21 04:44:30;;;;;;;7.28;3.35;;;19.90;68.70;;;;;;7837458;28;20248;-65
2021/12/21 04:48:15;;;;;;;6.32;2.88;;;19.90;68.70;;;;;;7837632;28;20678;-65
2021/12/21 04:52:01;;;;;;;5.28;2.90;;;20.00;68.70;;;;;;7838086;28;20598;-65
2021/12/21 04:55:47;;;;;;;9.07;3.65;;;19.90;68.70;;;;;;7838233;28;20174;-65
2021/12/21 04:59:33;;;;;;;6.07;3.28;;;19.90;68.70;;;;;;7837384;28;20178;-65
2021/12/21 05:03:19;;;;;;;6.63;3.30;;;19.90;68.70;;;;;;7837927;28;20284;-65
2021/12/21 05:07:05;;;;;;;7.07;3.35;;;19.90;68.70;;;;;;7838077;28;20220;-64
2021/12/21 05:10:55;;;;;;;7.30;3.20;;;19.90;68.70;;;;;;7837281;28;20212;-65
2021/12/21 05:14:40;;;;;;;5.72;3.15;;;19.90;68.80;;;;;;7837716;28;20208;-65
2021/12/21 05:18:27;;;;;;;5.60;3.80;;;19.90;68.80;;;;;;7837160;28;20632;-65
2021/12/21 05:22:12;;;;;;;4.40;3.00;;;19.80;69.10;;;;;;7837873;28;20201;-64
2021/12/21 05:25:58;;;;;;;6.78;3.83;;;19.80;68.70;;;;;;7838074;28;20310;-65
2021/12/21 05:29:43;;;;;;;8.25;3.95;;;19.90;68.70;;;;;;7837112;28;20189;-64
2021/12/21 05:33:29;;;;;;;7.75;3.80;;;19.80;68.70;;;;;;7837565;28;20202;-65
2021/12/21 05:37:14;;;;;;;7.00;3.78;;;19.80;68.80;;;;;;7837507;28;20178;-65
2021/12/21 05:41:03;;;;;;;9.10;3.40;;;19.80;68.80;;;;;;7836807;28;20182;-65
2021/12/21 05:44:49;;;;;;;7.10;3.40;;;19.80;69.00;;;;;;7837255;28;20717;-65
2021/12/21 05:48:35;;;;;;;16.60;3.15;;;19.80;69.00;;;;;;7834589;28;20181;-64
2021/12/21 05:52:20;;;;;;;12.55;3.47;;;19.80;69.50;;;;;;7836753;28;20245;-64
2021/12/21 05:56:06;;;;;;;16.40;3.70;;;19.80;69.50;;;;;;7840514;28;20178;-64
2021/12/21 05:59:51;;;;;;;13.20;4.30;;;19.90;69.50;;;;;;7842502;28;20185;-65
2021/12/21 06:03:37;;;;;;;12.52;4.65;;;19.90;69.20;;;;;;7842930;28;20197;-65
2021/12/21 06:07:22;;;;;;;21.27;7.15;;;19.90;69.20;;;;;;7842796;28;20241;-65
2021/12/21 06:11:08;;;;;;;16.55;7.15;;;19.80;68.40;;;;;;7842152;28;20182;-64
2021/12/21 06:27:02;;;;;;;19.90;5.30;;;19.80;68.70;;;;;;7840919;28;20569;-65
2021/12/21 06:30:48;;;;;;;10.32;4.82;;;19.80;68.70;;;;;;7841886;28;20228;-65
2021/12/21 06:34:34;;;;;;;11.02;5.22;;;19.90;68.80;;;;;;7842028;28;20202;-65
2021/12/21 06:38:20;;;;;;;10.38;4.50;;;19.80;68.70;;;;;;7841912;28;20182;-65
2021/12/21 06:42:06;;;;;;;12.70;4.47;;;19.80;68.60;;;;;;7841770;28;20202;-65
2021/12/21 06:46:01;;;;;;;11.82;4.53;;;19.90;68.60;;;;;;7842045;28;20702;-65
2021/12/21 06:53:54;;;;;;;12.00;5.05;;;19.90;68.60;;;;;;7841499;28;20750;-65
2021/12/21 06:57:43;;;;;;;9.85;4.40;;;19.90;68.50;;;;;;7841243;28;20662;-65
2021/12/21 07:01:28;;;;;;;10.95;5.40;;;19.90;68.40;;;;;;7853127;28;20181;-65
2021/12/21 07:05:15;;;;;;;12.48;5.30;;;19.90;68.40;;;;;;7871748;28;20233;-65
2021/12/21 07:09:17;;;;;;;10.77;5.13;;;19.90;68.40;;;;;;7871810;28;20169;-64
2021/12/21 07:21:11;;;;;;;10.82;5.20;;;20.00;68.50;;;;;;7871790;28;20177;-65
2021/12/21 07:24:56;;;;;;;12.80;6.00;;;19.90;68.30;;;;;;7871984;28;20297;-65
2021/12/21 07:28:42;;;;;;;11.18;6.10;;;20.00;68.20;;;;;;7871639;28;20184;-64
2021/12/21 07:32:27;;;;;;;9.27;5.97;;;19.90;68.20;;;;;;7871568;28;20185;-65
2021/12/21 07:36:13;;;;;;;9.65;5.88;;;19.90;68.10;;;;;;7871868;28;20552;-65
2021/12/21 07:39:58;;;;;;;9.30;5.07;;;19.90;68.10;;;;;;7871239;28;20177;-65
2021/12/21 07:43:44;;;;;;;9.88;5.38;;;19.90;68.10;;;;;;7871246;28;20224;-65
2021/12/21 07:47:29;;;;;;;10.82;5.32;;;19.90;68.00;;;;;;7870689;28;20205;-64
2021/12/21 07:51:15;;;;;;;10.57;4.80;;;20.00;68.00;;;;;;7870948;28;20238;-65
2021/12/21 07:55:01;;;;;;;9.13;5.20;;;20.00;68.00;;;;;;7870678;28;20677;-65
2021/12/21 07:58:47;;;;;;;7.10;4.50;;;20.00;67.90;;;;;;7870395;28;20303;-65
2021/12/21 08:02:33;;;;;;;8.13;4.60;;;20.00;67.80;;;;;;7870695;28;20197;-65
2021/12/21 08:06:19;;;;;;;8.70;4.55;;;20.00;67.70;;;;;;7870556;28;20212;-64
2021/12/21 08:10:18;;;;;;;10.55;5.07;;;20.00;67.70;;;;;;7870032;28;20173;-65
2021/12/21 08:14:05;;;;;;;11.35;5.50;;;20.00;67.70;;;;;;7870387;28;20821;-64
2021/12/21 08:17:50;;;;;;;11.15;5.05;;;20.00;67.70;;;;;;7869860;28;20208;-65
2021/12/21 08:21:36;;;;;;;15.00;5.25;;;20.00;67.70;;;;;;7869864;28;20693;-64
2021/12/21 08:25:25;;;;;;;10.68;4.85;;;20.00;67.90;;;;;;7869642;28;20211;-65
2021/12/21 08:29:11;;;;;;;11.10;5.10;;;20.10;68.00;;;;;;7869497;28;20170;-65
2021/12/21 08:32:57;;;;;;;8.43;4.28;;;20.00;68.20;;;;;;7869480;28;20218;-64
2021/12/21 08:36:42;;;;;;;15.55;5.80;;;20.00;68.00;;;;;;7869358;28;20375;-65
2021/12/21 08:40:36;;;;;;;12.52;6.18;;;20.00;67.80;;;;;;7869602;28;20174;-65
2021/12/21 08:44:26;;;;;;;10.77;5.68;;;20.00;67.80;;;;;;7869727;28;20205;-64
2021/12/21 08:48:13;;;;;;;12.70;6.00;;;20.10;67.70;;;;;;7869064;28;20604;-65
2021/12/21 08:52:00;;;;;;;10.00;5.50;;;20.10;67.70;;;;;;7869233;28;20293;-65
2021/12/21 08:55:45;;;;;;;11.00;5.22;;;20.10;67.70;;;;;;7869406;28;20647;-64
2021/12/21 08:59:31;;;;;;;9.18;5.95;;;20.10;67.70;;;;;;7868916;28;20185;-65
2021/12/21 09:03:17;;;;;;;8.95;5.75;;;20.10;67.60;;;;;;7869268;28;20239;-65
2021/12/21 09:07:03;;;;;;;8.55;5.80;;;20.10;67.40;;;;;;7869295;28;20266;-64
2021/12/21 09:10:49;;;;;;;10.52;5.35;;;20.10;67.40;;;;;;7869012;28;20687;-65
2021/12/21 09:14:34;;;;;;;8.98;5.72;;;20.10;67.40;;;;;;7869299;28;20780;-64
2021/12/21 09:18:20;;;;;;;9.82;5.78;;;20.10;67.40;;;;;;7869326;28;20646;-64
2021/12/21 09:22:05;;;;;;;9.60;5.50;;;20.10;67.40;;;;;;7869339;28;20208;-64
2021/12/21 09:25:51;;;;;;;11.38;6.30;;;20.10;67.60;;;;;;7868737;28;20236;-65
2021/12/21 09:29:36;;;;;;;12.48;6.32;;;20.10;67.40;;;;;;7870992;28;20260;-64
2021/12/21 09:33:22;;;;;;;8.50;5.72;;;20.10;67.40;;;;;;7875234;28;20197;-64
2021/12/21 09:37:14;;;;;;;12.38;6.18;;;20.20;67.40;;;;;;7875048;28;20262;-64
2021/12/21 09:41:00;;;;;;;11.25;6.07;;;20.10;67.40;;;;;;7874885;28;20217;-64
2021/12/21 09:44:46;;;;;;;10.25;6.03;;;20.10;67.30;;;;;;7874654;28;20673;-64
2021/12/21 09:48:32;;;;;;;15.15;6.57;;;20.10;67.20;;;;;;7874469;28;20170;-65
2021/12/21 09:52:22;;;;;;;11.10;5.90;;;20.10;68.10;;;;;;7874131;28;20213;-65
2021/12/21 09:56:08;;;;;;;9.57;6.53;;;20.10;67.20;;;;;;7874509;28;20176;-64
2021/12/21 09:59:54;;;;;;;9.15;5.55;;;20.10;67.30;;;;;;7874020;28;20209;-62
2021/12/21 10:03:39;;;;;;;9.60;5.75;;;20.10;67.10;;;;;;7874011;28;20880;-64
2021/12/21 10:07:26;;;;;;;16.95;5.05;;;20.10;67.90;;;;;;7873767;28;20715;-65
2021/12/21 10:11:23;;;;;;;14.60;6.03;;;20.20;68.40;;;;;;7873698;28;20169;-64
2021/12/21 10:15:19;;;;;;;13.77;5.55;;;20.20;68.10;;;;;;7873636;28;20276;-65
2021/12/21 10:19:08;;;;;;;8.75;5.00;;;20.20;68.00;;;;;;7873501;28;20226;-65
2021/12/21 10:22:53;;;;;;;8.40;5.03;;;20.20;67.80;;;;;;7873621;28;20232;-65
2021/12/21 10:26:39;;;;;;;9.15;5.00;;;20.20;67.80;;;;;;7873413;28;20212;-65
2021/12/21 10:30:24;;;;;;;10.38;5.47;;;20.20;68.00;;;;;;7873141;28;20261;-65
2021/12/21 10:34:15;;;;;;;11.57;5.40;;;20.20;67.80;;;;;;7873167;28;20246;-65
2021/12/21 10:38:04;;;;;;;7.10;4.78;;;20.30;67.80;;;;;;7872864;28;20181;-65
2021/12/21 10:41:52;;;;;;;10.50;4.82;;;20.20;67.80;;;;;;7871696;28;20200;-65
2021/12/21 10:45:41;;;;;;;13.48;5.47;;;20.20;67.90;;;;;;7873062;28;20840;-65
2021/12/21 10:49:28;;;;;;;8.60;4.80;;;20.20;67.90;;;;;;7872746;28;20177;-65
2021/12/21 10:53:19;;;;;;;7.25;4.55;;;20.20;67.90;;;;;;7872505;28;20220;-65
2021/12/21 10:57:15;;;;;;;9.13;4.38;;;20.30;68.00;;;;;;7872890;28;20170;-65
2021/12/21 11:01:05;;;;;;;7.53;4.78;;;20.20;67.90;;;;;;7873175;28;20185;-64
2021/12/21 11:04:56;;;;;;;6.38;3.97;;;20.30;68.00;;;;;;7872613;28;20708;-65
2021/12/21 11:08:45;;;;;;;9.88;4.35;;;20.30;68.10;;;;;;7872385;28;20177;-65
2021/12/21 11:12:45;;;;;;;6.28;4.03;;;20.30;68.10;;;;;;7872525;28;20221;-64
2021/12/21 11:16:50;;;;;;;6.57;3.50;;;20.30;68.10;;;;;;7872282;28;20673;-64
2021/12/21 11:20:42;;;;;;;13.88;3.63;;;20.30;68.40;;;;;;7872005;28;20174;-64
2021/12/21 11:24:30;;;;;;;12.20;3.83;;;20.30;68.10;;;;;;7871881;28;20276;-64
2021/12/21 11:28:20;;;;;;;7.55;3.90;;;20.30;68.20;;;;;;7871571;28;20231;-65
2021/12/21 11:32:07;;;;;;;9.70;3.88;;;20.30;68.70;;;;;;7871494;28;20536;-65
2021/12/21 11:39:58;;;;;;;7.53;3.85;;;20.30;67.50;;;;;;7871249;28;20230;-65
2021/12/21 11:43:54;;;;;;;10.05;3.92;;;20.30;67.70;;;;;;7871053;28;20200;-65
2021/12/21 11:48:10;;;;;;;6.43;3.33;;;20.30;67.70;;;;;;7870893;28;20215;-65
2021/12/21 11:52:11;;;;;;;7.65;3.75;;;20.30;67.60;;;;;;7870592;28;20205;-65
2021/12/21 11:55:56;;;;;;;10.57;4.25;;;20.30;67.80;;;;;;7870832;28;20549;-65
2021/12/21 11:59:42;;;;;;;7.43;3.75;;;20.30;67.90;;;;;;7870519;28;20170;-64
2021/12/21 12:03:31;;;;;;;9.60;3.40;;;20.40;67.80;;;;;;7870629;28;20208;-65
2021/12/21 12:07:18;;;;;;;6.32;4.13;;;20.40;67.80;;;;;;7870366;28;20569;-65
2021/12/21 12:11:04;;;;;;;7.75;3.67;;;20.60;67.70;;;;;;7867256;28;20161;-65
2021/12/21 12:15:00;;;;;;;8.55;3.85;;;20.60;67.70;;;;;;7839152;28;20271;-65
2021/12/21 12:18:50;;;;;;;6.10;2.67;;;20.60;68.00;;;;;;7838981;28;20185;-65
2021/12/21 12:22:38;;;;;;;6.65;2.83;;;20.70;68.70;;;;;;7838712;28;20205;-65
2021/12/21 12:26:27;;;;;;;7.28;2.58;;;20.80;69.00;;;;;;7839105;28;20742;-65
2021/12/21 12:30:16;;;;;;;11.18;3.42;;;20.90;69.80;;;;;;7838964;28;20239;-65
2021/12/21 12:34:02;;;;;;;6.65;3.38;;;21.00;69.50;;;;;;7875891;22;20705;-66
2021/12/21 12:37:53;;;;;;;8.63;2.40;;;21.00;69.80;;;;;;7868942;28;20542;-66
2021/12/21 12:41:44;;;;;;;4.35;2.22;;;21.20;70.80;;;;;;7869533;28;20280;-66
2021/12/21 12:45:39;;;;;;;10.88;2.80;;;21.20;71.20;;;;;;7869295;28;20197;-66
2021/12/21 12:49:27;;;;;;;6.53;2.50;;;21.30;71.10;;;;;;7868661;28;20166;-66
2021/12/21 12:53:13;;;;;;;9.77;2.90;;;21.30;71.10;;;;;;7869264;28;20224;-66
2021/12/21 12:56:59;;;;;;;8.90;2.38;;;21.40;70.80;;;;;;7869138;28;20181;-66
2021/12/21 13:00:45;;;;;;;8.48;2.47;;;21.40;71.20;;;;;;7868616;28;20178;-65
2021/12/21 13:04:32;;;;;;;9.27;2.53;;;21.40;71.00;;;;;;7868190;28;20193;-66
2021/12/21 13:08:19;;;;;;;5.63;2.60;;;21.40;71.00;;;;;;7868425;28;20173;-65
2021/12/21 13:12:10;;;;;;;7.72;3.35;;;21.40;70.90;;;;;;7868861;28;20240;-66
2021/12/21 13:15:56;;;;;;;3.10;1.90;;;21.40;71.20;;;;;;7869113;28;20191;-67
2021/12/21 13:19:41;;;;;;;3.72;2.47;;;21.40;71.00;;;;;;7868083;28;20330;-66
2021/12/21 13:23:29;;;;;;;9.18;2.38;;;21.40;70.50;;;;;;7868700;28;20250;-66
2021/12/21 13:27:15;;;;;;;7.22;3.05;;;21.40;71.00;;;;;;7868783;28;20239;-66
2021/12/21 13:31:06;;;;;;;7.82;2.80;;;21.40;70.50;;;;;;7868023;28;20577;-66
2021/12/21 13:34:53;;;;;;;9.68;2.88;;;21.40;70.70;;;;;;7868394;28;20189;-66
2021/12/21 13:38:39;;;;;;;9.55;3.15;;;21.40;71.00;;;;;;7867958;28;20768;-66
2021/12/21 13:42:28;;;;;;;4.32;2.78;;;21.40;70.90;;;;;;7868284;28;20717;-66
2021/12/21 13:46:13;;;;;;;6.25;2.35;;;21.40;70.70;;;;;;7868577;28;20251;-66
2021/12/21 13:50:11;;;;;;;9.65;2.80;;;21.50;71.30;;;;;;7867640;28;20173;-65
2021/12/21 13:53:58;;;;;;;10.52;2.58;;;21.50;71.60;;;;;;7868480;28;20185;-65
2021/12/21 13:57:43;;;;;;;3.50;2.15;;;21.50;71.60;;;;;;7867782;28;20718;-65
2021/12/21 14:01:35;;;;;;;10.05;2.47;;;21.60;71.60;;;;;;7868378;28;20554;-65
2021/12/21 14:05:30;;;;;;;7.88;2.42;;;21.60;71.60;;;;;;7868584;28;20204;-65
2021/12/21 14:09:19;;;;;;;3.80;2.28;;;21.60;71.60;;;;;;7868167;28;20195;-64
2021/12/21 14:13:05;;;;;;;5.13;2.40;;;21.60;71.60;;;;;;7868028;28;20209;-64
2021/12/21 14:16:53;;;;;;;6.68;2.88;;;21.70;71.40;;;;;;7871834;28;20174;-65
2021/12/21 14:20:39;;;;;;;5.72;2.72;;;21.70;71.60;;;;;;7872847;28;20651;-65
2021/12/21 14:24:28;;;;;;;7.07;2.53;;;21.70;70.90;;;;;;7873133;28;20559;-65
2021/12/21 14:28:14;;;;;;;5.03;2.47;;;21.60;71.00;;;;;;7872669;28;20208;-65
2021/12/21 14:36:00;;;;;;;10.32;2.85;;;21.60;71.20;;;;;;7873386;28;20188;-66
2021/12/21 14:39:46;;;;;;;6.28;2.78;;;21.50;70.60;;;;;;7872332;28;20169;-65
2021/12/21 14:43:32;;;;;;;10.68;2.78;;;21.60;71.30;;;;;;7872856;28;20196;-66
2021/12/21 14:47:19;;;;;;;6.05;2.50;;;21.60;71.40;;;;;;7872807;28;20292;-65
2021/12/21 14:51:08;;;;;;;6.05;3.42;;;21.60;71.30;;;;;;7871902;28;20180;-65
2021/12/21 14:55:14;;;;;;;3.50;2.35;;;21.60;71.10;;;;;;7872801;28;20185;-65
2021/12/21 14:59:06;;;;;;;5.13;2.20;;;21.60;71.40;;;;;;7871975;28;20176;-66
2021/12/21 15:02:54;;;;;;;10.00;2.20;;;21.70;71.40;;;;;;7872247;28;20684;-66
2021/12/21 15:06:39;;;;;;;4.50;2.15;;;21.70;71.40;;;;;;7872366;28;20323;-65
2021/12/21 15:10:27;;;;;;;3.95;2.20;;;21.70;71.40;;;;;;7871531;28;20166;-66
2021/12/21 15:14:13;;;;;;;4.80;2.50;;;21.60;71.30;;;;;;7871995;28;20201;-66
2021/12/21 15:17:59;;;;;;;5.22;2.38;;;21.70;71.40;;;;;;7871189;28;20280;-65
2021/12/21 15:21:45;;;;;;;4.28;2.85;;;21.60;71.50;;;;;;7871769;28;20228;-63
2021/12/21 15:25:30;;;;;;;5.97;2.63;;;21.60;70.90;;;;;;7871755;28;20204;-64
2021/12/21 15:29:16;;;;;;;8.77;2.70;;;21.60;70.60;;;;;;7870197;28;20166;-65
2021/12/21 15:33:02;;;;;;;5.75;2.42;;;21.60;71.00;;;;;;7871379;28;20212;-66
2021/12/21 15:36:48;;;;;;;4.03;2.63;;;21.70;71.10;;;;;;7870776;28;20177;-66
2021/12/21 15:40:33;;;;;;;4.55;2.70;;;21.70;71.20;;;;;;7870675;28;20173;-66
2021/12/21 15:44:23;;;;;;;5.82;2.50;;;21.80;71.10;;;;;;7871186;28;20276;-66
2021/12/21 15:48:09;;;;;;;7.32;2.97;;;21.80;70.90;;;;;;7870530;28;20251;-66
2021/12/21 15:51:55;;;;;;;6.25;2.70;;;21.90;71.00;;;;;;7870807;28;20307;-65
2021/12/21 15:55:40;;;;;;;6.10;2.33;;;22.00;71.20;;;;;;7870287;28;20185;-65
2021/12/21 15:59:26;;;;;;;8.52;2.70;;;21.90;69.80;;;;;;7856813;28;20193;-65
2021/12/21 16:03:12;;;;;;;11.48;3.42;;;22.00;70.00;;;;;;7848898;28;20240;-66
2021/12/21 16:06:57;;;;;;;16.85;3.33;;;22.00;69.20;;;;;;7846549;28;20209;-66
2021/12/21 16:10:43;;;;;;;19.55;3.28;;;22.00;68.90;;;;;;7839542;28;20245;-66
2021/12/21 16:14:28;;;;;;;18.75;10.07;;;22.00;69.20;;;;;;7839892;28;20553;-63
2021/12/21 16:18:14;;;;;;;24.25;9.55;;;22.00;66.10;;;;;;7839382;28;20235;-66
2021/12/21 16:22:00;;;;;;;20.88;11.77;;;21.80;66.10;;;;;;7839871;28;20205;-66
2021/12/21 16:25:45;;;;;;;21.83;11.63;;;21.70;66.50;;;;;;7839925;28;20273;-66
2021/12/21 16:29:31;;;;;;;23.83;11.10;;;21.80;67.10;;;;;;7838927;28;20576;-66
2021/12/21 16:33:18;;;;;;;26.70;13.75;;;21.90;68.00;;;;;;7839704;28;20209;-66
2021/12/21 16:37:04;;;;;;;34.00;13.32;;;22.00;68.70;;;;;;7839961;28;20185;-66
2021/12/21 16:40:51;;;;;;;24.48;11.43;;;22.20;69.00;;;;;;7838050;28;20201;-66
2021/12/21 16:44:36;;;;;;;19.70;10.70;;;22.40;68.90;;;;;;7838643;28;20252;-67
2021/12/21 16:48:22;;;;;;;21.80;9.68;;;22.70;68.70;;;;;;7837904;28;20170;-67
2021/12/21 16:52:07;;;;;;;19.80;10.70;;;22.90;68.50;;;;;;7838664;28;20663;-67
2021/12/21 16:55:53;;;;;;;20.05;8.38;;;23.20;68.40;;;;;;7838582;28;20569;-67
2021/12/21 16:59:45;;;;;;;13.85;8.07;;;23.40;68.00;;;;;;7837703;28;20181;-67
2021/12/21 17:03:30;;;;;;;13.90;7.25;;;23.60;67.90;;;;;;7838840;28;20204;-67
2021/12/21 17:07:16;;;;;;;16.67;7.38;;;23.70;67.90;;;;;;7838599;28;20205;-67
2021/12/21 17:11:01;;;;;;;11.40;7.07;;;23.80;67.80;;;;;;7837668;28;20171;-67
2021/12/21 17:14:46;;;;;;;12.77;6.57;;;24.00;67.60;;;;;;7838355;28;20418;-66
2021/12/21 17:18:32;;;;;;;9.18;6.32;;;24.00;67.50;;;;;;7837628;28;20541;-67
2021/12/21 17:22:18;;;;;;;11.27;6.25;;;24.10;67.60;;;;;;7838696;28;20243;-67
2021/12/21 17:26:04;;;;;;;9.57;5.72;;;24.20;67.50;;;;;;7838586;28;20216;-67
2021/12/21 17:29:49;;;;;;;9.85;5.95;;;24.10;67.70;;;;;;7838518;28;20178;-67
2021/12/21 17:33:38;;;;;;;11.48;5.85;;;24.10;67.60;;;;;;7838728;28;20206;-67
2021/12/21 17:37:25;;;;;;;8.60;5.15;;;24.10;67.70;;;;;;7838171;28;20224;-67
2021/12/21 17:41:13;;;;;;;8.77;5.35;;;24.00;67.70;;;;;;7837407;28;20639;-66
2021/12/21 17:44:58;;;;;;;7.20;5.28;;;24.00;67.80;;;;;;7837825;28;20202;-67
2021/12/21 17:48:44;;;;;;;9.77;5.13;;;24.00;68.00;;;;;;7837020;28;20423;-67
2021/12/21 17:52:29;;;;;;;8.50;5.32;;;23.90;68.00;;;;;;7842643;28;20217;-67
2021/12/21 17:56:15;;;;;;;7.78;5.03;;;23.80;68.10;;;;;;7843698;28;20186;-67
2021/12/21 18:00:00;;;;;;;8.02;4.70;;;23.70;68.30;;;;;;7843399;28;20174;-67
2021/12/21 18:03:46;;;;;;;7.28;4.70;;;23.70;69.20;;;;;;7843553;28;20237;-67
2021/12/21 18:07:31;;;;;;;7.93;4.80;;;23.60;68.50;;;;;;7842766;28;20295;-67
2021/12/21 18:11:17;;;;;;;7.07;4.57;;;23.50;68.50;;;;;;7843139;28;20194;-67
2021/12/21 18:15:03;;;;;;;7.25;5.07;;;23.50;68.80;;;;;;7843299;28;20670;-67
2021/12/21 18:18:48;;;;;;;7.85;4.75;;;23.40;68.80;;;;;;7842370;28;20193;-66
2021/12/21 18:22:34;;;;;;;6.72;4.93;;;23.30;69.00;;;;;;7844762;28;20217;-67
2021/12/21 18:26:20;;;;;;;7.95;4.75;;;23.30;69.20;;;;;;7842905;28;20205;-66
2021/12/21 18:30:06;;;;;;;14.98;5.22;;;23.20;69.20;;;;;;7841724;28;20247;-63
2021/12/21 18:33:51;;;;;;;15.95;6.88;;;23.00;60.00;;;;;;7877282;22;20244;-64
2021/12/21 18:37:46;;;;;;;17.77;5.80;;;22.50;60.90;;;;;;7873003;28;20681;-65
2021/12/21 18:41:32;;;;;;;11.00;5.18;;;22.40;68.50;;;;;;7873276;28;20278;-64
2021/12/21 18:45:17;;;;;;;11.60;5.43;;;22.50;68.70;;;;;;7873353;28;20213;-64
2021/12/21 18:49:04;;;;;;;12.52;5.07;;;22.60;68.50;;;;;;7872300;28;20173;-65
2021/12/21 18:52:52;;;;;;;14.88;4.82;;;22.60;68.90;;;;;;7872975;28;20185;-65
2021/12/21 18:56:38;;;;;;;11.90;5.40;;;22.60;69.60;;;;;;7872841;28;20173;-65
2021/12/21 19:00:29;;;;;;;16.60;6.10;;;22.70;68.70;;;;;;7872101;28;20192;-64
2021/12/21 19:04:14;;;;;;;23.30;6.63;;;22.60;68.70;;;;;;7848543;28;20202;-65
2021/12/21 19:08:01;;;;;;;19.42;7.13;;;22.70;68.70;;;;;;7864211;28;20220;-64
2021/12/21 19:11:46;;;;;;;25.10;8.18;;;22.70;69.00;;;;;;7863564;28;20259;-65
2021/12/21 19:15:33;;;;;;;34.85;7.55;;;22.80;69.40;;;;;;7841198;28;20269;-64
2021/12/21 19:19:19;;;;;;;28.83;7.93;;;22.90;69.40;;;;;;7881999;28;20176;-64
2021/12/21 19:23:05;;;;;;;35.45;8.20;;;22.90;69.50;;;;;;7885580;28;20339;-65
2021/12/21 19:26:51;;;;;;;31.88;8.50;;;23.00;69.70;;;;;;7891571;28;20685;-65
2021/12/21 19:30:36;;;;;;;39.60;7.82;;;23.20;69.80;;;;;;7902444;28;20540;-65
2021/12/21 19:34:22;;;;;;;38.55;8.32;;;23.30;69.80;;;;;;7902769;28;20213;-65
2021/12/21 19:38:08;;;;;;;23.60;7.05;;;23.40;69.60;;;;;;7902222;28;20646;-65
2021/12/21 19:41:53;;;;;;;31.55;7.32;;;23.60;69.50;;;;;;7869016;28;20210;-66
2021/12/21 19:45:40;;;;;;;23.83;6.63;;;23.70;69.50;;;;;;7848345;28;20217;-64
2021/12/21 19:49:26;;;;;;;26.25;6.97;;;23.80;70.90;;;;;;7838878;28;20253;-65
2021/12/21 19:53:11;;;;;;;26.92;6.78;;;23.90;72.00;;;;;;7839054;28;20689;-65
2021/12/21 19:56:57;;;;;;;34.38;7.57;;;23.90;72.60;;;;;;7839146;28;20757;-64
2021/12/21 20:00:44;;;;;;;19.83;6.20;;;24.00;72.50;;;;;;7838296;28;20651;-64
2021/12/21 20:04:30;;;;;;;22.00;6.78;;;24.00;72.50;;;;;;7838695;28;20202;-64
2021/12/21 20:08:16;;;;;;;22.38;6.70;;;24.10;72.40;;;;;;7838061;28;20209;-64
2021/12/21 20:12:45;;;;;;;18.15;6.93;;;24.00;72.90;;;;;;7838676;28;20237;-64
2021/12/21 20:16:12;;;;;;;17.90;6.63;;;24.00;73.00;;;;;;7830701;28;20193;-65
2021/12/21 20:19:58;;;;;;;16.25;6.38;;;24.00;73.40;;;;;;7838264;28;20239;-65
2021/12/21 20:23:44;;;;;;;27.40;6.53;;;24.00;73.40;;;;;;7853615;28;20228;-65
2021/12/21 20:27:30;;;;;;;24.00;6.50;;;24.00;73.40;;;;;;7865141;28;20209;-64
2021/12/21 20:31:15;;;;;;;19.80;6.50;;;24.00;73.70;;;;;;7867734;28;20242;-65
2021/12/21 20:35:01;;;;;;;20.85;5.72;;;24.00;74.20;;;;;;7868930;28;20205;-65
2021/12/21 20:38:47;;;;;;;20.67;5.88;;;24.00;74.20;;;;;;7868062;28;20653;-65